Terminal Aerodrome Forecast
Issued by NWS Newport/Morehead City, NC

Home | Current Version | Previous Version | Graphics & Text | Print | Product List | Glossary On
Versions: 1 2 3 4 5 6 7 8 9 10 11 12 13 14 15 16 17 18 19 20 21 22 23
000
FTUS42 KMHX 011627 AAE
TAFEWN
TAF AMD
KEWN 011627Z 0116/0212 29005KT P6SM OVC035
     FM011800 27005KT P6SM SCT025 SCT045
     FM020600 00000KT 3SM BR SCT005=

USA.gov is the U.S. government's official web portal to all federal, state and local government web resources and services.